sensor_id;sensor_type;location;lat;lon;timestamp;P1;durP1;ratioP1;P2;durP2;ratioP2
8466;SDS011;4270;48.148;11.648;2023-06-22T00:01:08;7.30;;;4.23;;
8466;SDS011;4270;48.148;11.648;2023-06-22T00:03:33;6.93;;;4.20;;
8466;SDS011;4270;48.148;11.648;2023-06-22T00:05:58;8.67;;;4.97;;
8466;SDS011;4270;48.148;11.648;2023-06-22T00:08:23;6.60;;;4.40;;
8466;SDS011;4270;48.148;11.648;2023-06-22T00:10:49;9.40;;;4.00;;
8466;SDS011;4270;48.148;11.648;2023-06-22T00:13:17;8.40;;;4.20;;
8466;SDS011;4270;48.148;11.648;2023-06-22T00:15:43;7.33;;;5.13;;
8466;SDS011;4270;48.148;11.648;2023-06-22T00:18:08;7.27;;;4.07;;
8466;SDS011;4270;48.148;11.648;2023-06-22T00:20:34;6.90;;;4.40;;
8466;SDS011;4270;48.148;11.648;2023-06-22T00:23:02;7.17;;;4.27;;
8466;SDS011;4270;48.148;11.648;2023-06-22T00:25:31;6.70;;;4.33;;
8466;SDS011;4270;48.148;11.648;2023-06-22T00:27:56;11.40;;;4.50;;
8466;SDS011;4270;48.148;11.648;2023-06-22T00:30:22;7.60;;;3.90;;
8466;SDS011;4270;48.148;11.648;2023-06-22T00:32:47;7.30;;;4.33;;
8466;SDS011;4270;48.148;11.648;2023-06-22T00:35:12;8.00;;;4.10;;
8466;SDS011;4270;48.148;11.648;2023-06-22T00:37:38;7.57;;;4.03;;
8466;SDS011;4270;48.148;11.648;2023-06-22T00:40:05;8.33;;;4.37;;
8466;SDS011;4270;48.148;11.648;2023-06-22T00:42:32;7.43;;;4.23;;
8466;SDS011;4270;48.148;11.648;2023-06-22T00:44:57;5.50;;;3.40;;
8466;SDS011;4270;48.148;11.648;2023-06-22T00:47:23;9.00;;;4.73;;
8466;SDS011;4270;48.148;11.648;2023-06-22T00:49:49;7.80;;;4.70;;
8466;SDS011;4270;48.148;11.648;2023-06-22T00:52:16;8.40;;;4.60;;
8466;SDS011;4270;48.148;11.648;2023-06-22T00:54:46;8.20;;;3.93;;
8466;SDS011;4270;48.148;11.648;2023-06-22T00:57:14;6.63;;;4.17;;
8466;SDS011;4270;48.148;11.648;2023-06-22T00:59:42;9.83;;;5.90;;
8466;SDS011;4270;48.148;11.648;2023-06-22T01:02:07;5.90;;;4.33;;
8466;SDS011;4270;48.148;11.648;2023-06-22T01:04:36;6.03;;;3.87;;
8466;SDS011;4270;48.148;11.648;2023-06-22T01:09:28;8.40;;;4.77;;
8466;SDS011;4270;48.148;11.648;2023-06-22T01:12:04;7.23;;;4.13;;
8466;SDS011;4270;48.148;11.648;2023-06-22T01:16:56;7.63;;;4.63;;
8466;SDS011;4270;48.148;11.648;2023-06-22T01:21:56;7.53;;;3.90;;
8466;SDS011;4270;48.148;11.648;2023-06-22T01:29:28;7.07;;;4.10;;
8466;SDS011;4270;48.148;11.648;2023-06-22T01:31:54;8.33;;;4.70;;
8466;SDS011;4270;48.148;11.648;2023-06-22T01:34:21;7.23;;;4.50;;
8466;SDS011;4270;48.148;11.648;2023-06-22T01:36:46;5.37;;;4.67;;
8466;SDS011;4270;48.148;11.648;2023-06-22T01:39:11;6.20;;;4.60;;
8466;SDS011;4270;48.148;11.648;2023-06-22T01:41:37;7.87;;;5.00;;
8466;SDS011;4270;48.148;11.648;2023-06-22T01:44:05;8.17;;;4.90;;
8466;SDS011;4270;48.148;11.648;2023-06-22T01:46:31;7.60;;;4.10;;
8466;SDS011;4270;48.148;11.648;2023-06-22T01:48:57;9.10;;;4.07;;
8466;SDS011;4270;48.148;11.648;2023-06-22T01:51:22;4.60;;;3.90;;
8466;SDS011;4270;48.148;11.648;2023-06-22T01:53:47;7.00;;;4.40;;
8466;SDS011;4270;48.148;11.648;2023-06-22T01:56:13;8.07;;;4.53;;
8466;SDS011;4270;48.148;11.648;2023-06-22T01:58:41;6.37;;;3.87;;
8466;SDS011;4270;48.148;11.648;2023-06-22T02:01:09;7.77;;;4.13;;
8466;SDS011;4270;48.148;11.648;2023-06-22T02:03:35;5.80;;;4.30;;
8466;SDS011;4270;48.148;11.648;2023-06-22T02:06:15;8.00;;;4.50;;
8466;SDS011;4270;48.148;11.648;2023-06-22T02:08:41;10.50;;;5.40;;
8466;SDS011;4270;48.148;11.648;2023-06-22T02:11:11;6.27;;;4.27;;
8466;SDS011;4270;48.148;11.648;2023-06-22T02:13:38;10.13;;;4.60;;
8466;SDS011;4270;48.148;11.648;2023-06-22T02:16:08;6.83;;;4.60;;
8466;SDS011;4270;48.148;11.648;2023-06-22T02:18:33;7.20;;;5.00;;
8466;SDS011;4270;48.148;11.648;2023-06-22T02:21:00;7.70;;;5.10;;
8466;SDS011;4270;48.148;11.648;2023-06-22T02:23:25;8.83;;;5.13;;
8466;SDS011;4270;48.148;11.648;2023-06-22T02:25:51;10.43;;;4.87;;
8466;SDS011;4270;48.148;11.648;2023-06-22T02:28:16;7.40;;;5.07;;
8466;SDS011;4270;48.148;11.648;2023-06-22T02:30:41;7.47;;;5.40;;
8466;SDS011;4270;48.148;11.648;2023-06-22T02:33:06;8.70;;;4.80;;
8466;SDS011;4270;48.148;11.648;2023-06-22T02:35:32;7.70;;;4.90;;
8466;SDS011;4270;48.148;11.648;2023-06-22T02:37:58;7.73;;;5.23;;
8466;SDS011;4270;48.148;11.648;2023-06-22T02:40:24;6.43;;;4.80;;
8466;SDS011;4270;48.148;11.648;2023-06-22T02:42:50;11.60;;;5.27;;
8466;SDS011;4270;48.148;11.648;2023-06-22T02:45:15;8.80;;;4.87;;
8466;SDS011;4270;48.148;11.648;2023-06-22T02:47:40;9.27;;;5.33;;
8466;SDS011;4270;48.148;11.648;2023-06-22T02:50:06;8.30;;;5.07;;
8466;SDS011;4270;48.148;11.648;2023-06-22T02:52:31;10.07;;;5.90;;
8466;SDS011;4270;48.148;11.648;2023-06-22T02:54:56;9.60;;;5.50;;
8466;SDS011;4270;48.148;11.648;2023-06-22T02:57:22;7.73;;;5.40;;
8466;SDS011;4270;48.148;11.648;2023-06-22T02:59:47;11.13;;;6.70;;
8466;SDS011;4270;48.148;11.648;2023-06-22T03:02:12;8.60;;;6.20;;
8466;SDS011;4270;48.148;11.648;2023-06-22T03:04:37;13.23;;;5.83;;
8466;SDS011;4270;48.148;11.648;2023-06-22T03:07:03;9.10;;;6.70;;
8466;SDS011;4270;48.148;11.648;2023-06-22T03:09:28;14.07;;;6.10;;
8466;SDS011;4270;48.148;11.648;2023-06-22T03:11:54;12.87;;;7.10;;
8466;SDS011;4270;48.148;11.648;2023-06-22T03:14:19;9.33;;;6.07;;
8466;SDS011;4270;48.148;11.648;2023-06-22T03:16:44;8.83;;;5.80;;
8466;SDS011;4270;48.148;11.648;2023-06-22T03:19:09;12.00;;;6.20;;
8466;SDS011;4270;48.148;11.648;2023-06-22T03:21:35;9.60;;;6.00;;
8466;SDS011;4270;48.148;11.648;2023-06-22T03:24:00;8.13;;;6.40;;
8466;SDS011;4270;48.148;11.648;2023-06-22T03:26:25;12.87;;;6.37;;
8466;SDS011;4270;48.148;11.648;2023-06-22T03:28:51;12.87;;;7.00;;
8466;SDS011;4270;48.148;11.648;2023-06-22T03:31:17;9.30;;;6.10;;
8466;SDS011;4270;48.148;11.648;2023-06-22T03:33:46;10.63;;;6.70;;
8466;SDS011;4270;48.148;11.648;2023-06-22T03:36:11;8.97;;;6.00;;
8466;SDS011;4270;48.148;11.648;2023-06-22T03:38:36;7.30;;;5.70;;
8466;SDS011;4270;48.148;11.648;2023-06-22T03:41:02;10.17;;;5.87;;
8466;SDS011;4270;48.148;11.648;2023-06-22T03:43:27;10.70;;;7.50;;
8466;SDS011;4270;48.148;11.648;2023-06-22T03:45:52;13.03;;;5.80;;
8466;SDS011;4270;48.148;11.648;2023-06-22T03:48:17;10.17;;;6.47;;
8466;SDS011;4270;48.148;11.648;2023-06-22T03:50:43;11.40;;;5.53;;
8466;SDS011;4270;48.148;11.648;2023-06-22T03:53:09;10.27;;;5.80;;
8466;SDS011;4270;48.148;11.648;2023-06-22T03:55:34;9.50;;;5.53;;
8466;SDS011;4270;48.148;11.648;2023-06-22T03:58:00;9.93;;;6.50;;
8466;SDS011;4270;48.148;11.648;2023-06-22T04:00:30;8.93;;;6.10;;
8466;SDS011;4270;48.148;11.648;2023-06-22T04:02:56;9.03;;;5.63;;
8466;SDS011;4270;48.148;11.648;2023-06-22T04:05:21;13.33;;;7.00;;
8466;SDS011;4270;48.148;11.648;2023-06-22T04:07:46;9.73;;;6.90;;
8466;SDS011;4270;48.148;11.648;2023-06-22T04:10:11;9.10;;;5.83;;
8466;SDS011;4270;48.148;11.648;2023-06-22T04:12:36;8.63;;;6.13;;
8466;SDS011;4270;48.148;11.648;2023-06-22T04:15:02;8.60;;;6.27;;
8466;SDS011;4270;48.148;11.648;2023-06-22T04:17:27;8.83;;;5.87;;
8466;SDS011;4270;48.148;11.648;2023-06-22T04:19:52;11.20;;;6.93;;
8466;SDS011;4270;48.148;11.648;2023-06-22T04:22:17;9.90;;;6.03;;
8466;SDS011;4270;48.148;11.648;2023-06-22T04:24:43;9.87;;;6.13;;
8466;SDS011;4270;48.148;11.648;2023-06-22T04:27:08;10.70;;;5.90;;
8466;SDS011;4270;48.148;11.648;2023-06-22T04:29:34;9.13;;;6.23;;
8466;SDS011;4270;48.148;11.648;2023-06-22T04:31:59;14.80;;;6.60;;
8466;SDS011;4270;48.148;11.648;2023-06-22T04:34:30;11.20;;;5.80;;
8466;SDS011;4270;48.148;11.648;2023-06-22T04:36:56;9.03;;;5.97;;
8466;SDS011;4270;48.148;11.648;2023-06-22T04:39:21;11.17;;;6.90;;
8466;SDS011;4270;48.148;11.648;2023-06-22T04:41:46;11.43;;;7.00;;
8466;SDS011;4270;48.148;11.648;2023-06-22T04:44:16;10.47;;;6.30;;
8466;SDS011;4270;48.148;11.648;2023-06-22T04:46:54;9.40;;;6.63;;
8466;SDS011;4270;48.148;11.648;2023-06-22T04:49:20;8.47;;;6.50;;
8466;SDS011;4270;48.148;11.648;2023-06-22T04:51:45;8.87;;;6.10;;
8466;SDS011;4270;48.148;11.648;2023-06-22T04:54:10;11.07;;;6.13;;
8466;SDS011;4270;48.148;11.648;2023-06-22T04:56:36;9.03;;;7.00;;
8466;SDS011;4270;48.148;11.648;2023-06-22T04:59:01;9.30;;;6.50;;
8466;SDS011;4270;48.148;11.648;2023-06-22T05:01:28;10.80;;;7.40;;
8466;SDS011;4270;48.148;11.648;2023-06-22T05:03:53;11.53;;;6.50;;
8466;SDS011;4270;48.148;11.648;2023-06-22T05:06:22;9.90;;;7.20;;
8466;SDS011;4270;48.148;11.648;2023-06-22T05:08:50;10.57;;;6.33;;
8466;SDS011;4270;48.148;11.648;2023-06-22T05:11:15;10.70;;;6.70;;
8466;SDS011;4270;48.148;11.648;2023-06-22T05:13:40;9.33;;;6.37;;
8466;SDS011;4270;48.148;11.648;2023-06-22T05:16:05;10.70;;;6.77;;
8466;SDS011;4270;48.148;11.648;2023-06-22T05:18:31;8.63;;;6.83;;
8466;SDS011;4270;48.148;11.648;2023-06-22T05:20:57;10.10;;;7.50;;
8466;SDS011;4270;48.148;11.648;2023-06-22T05:23:23;12.20;;;7.10;;
8466;SDS011;4270;48.148;11.648;2023-06-22T05:25:48;9.03;;;7.13;;
8466;SDS011;4270;48.148;11.648;2023-06-22T05:28:13;14.33;;;7.30;;
8466;SDS011;4270;48.148;11.648;2023-06-22T05:30:38;13.40;;;6.90;;
8466;SDS011;4270;48.148;11.648;2023-06-22T05:33:04;16.63;;;8.10;;
8466;SDS011;4270;48.148;11.648;2023-06-22T05:35:29;9.27;;;6.50;;
8466;SDS011;4270;48.148;11.648;2023-06-22T05:37:54;11.93;;;6.77;;
8466;SDS011;4270;48.148;11.648;2023-06-22T05:40:20;10.90;;;6.20;;
8466;SDS011;4270;48.148;11.648;2023-06-22T05:42:45;11.93;;;7.27;;
8466;SDS011;4270;48.148;11.648;2023-06-22T05:45:10;10.60;;;6.33;;
8466;SDS011;4270;48.148;11.648;2023-06-22T05:47:36;16.07;;;8.40;;
8466;SDS011;4270;48.148;11.648;2023-06-22T05:50:01;14.40;;;7.53;;
8466;SDS011;4270;48.148;11.648;2023-06-22T05:52:26;11.07;;;7.00;;
8466;SDS011;4270;48.148;11.648;2023-06-22T05:54:51;10.60;;;7.27;;
8466;SDS011;4270;48.148;11.648;2023-06-22T05:57:16;12.80;;;7.03;;
8466;SDS011;4270;48.148;11.648;2023-06-22T05:59:42;9.77;;;5.90;;
8466;SDS011;4270;48.148;11.648;2023-06-22T06:02:07;10.53;;;6.10;;
8466;SDS011;4270;48.148;11.648;2023-06-22T06:04:32;11.47;;;6.30;;
8466;SDS011;4270;48.148;11.648;2023-06-22T06:06:57;12.73;;;7.27;;
8466;SDS011;4270;48.148;11.648;2023-06-22T06:09:22;11.40;;;7.10;;
8466;SDS011;4270;48.148;11.648;2023-06-22T06:11:48;10.93;;;6.73;;
8466;SDS011;4270;48.148;11.648;2023-06-22T06:14:13;10.93;;;7.30;;
8466;SDS011;4270;48.148;11.648;2023-06-22T06:16:38;10.80;;;6.63;;
8466;SDS011;4270;48.148;11.648;2023-06-22T06:19:04;11.40;;;6.90;;
8466;SDS011;4270;48.148;11.648;2023-06-22T06:21:29;12.50;;;7.37;;
8466;SDS011;4270;48.148;11.648;2023-06-22T06:23:54;9.00;;;6.63;;
8466;SDS011;4270;48.148;11.648;2023-06-22T06:26:19;11.70;;;6.50;;
8466;SDS011;4270;48.148;11.648;2023-06-22T06:28:55;14.53;;;6.90;;
8466;SDS011;4270;48.148;11.648;2023-06-22T06:31:20;11.40;;;7.00;;
8466;SDS011;4270;48.148;11.648;2023-06-22T06:33:45;13.13;;;7.10;;
8466;SDS011;4270;48.148;11.648;2023-06-22T06:36:11;11.30;;;7.00;;
8466;SDS011;4270;48.148;11.648;2023-06-22T06:38:36;13.87;;;9.57;;
8466;SDS011;4270;48.148;11.648;2023-06-22T06:41:01;12.70;;;7.80;;
8466;SDS011;4270;48.148;11.648;2023-06-22T06:43:26;12.20;;;7.73;;
8466;SDS011;4270;48.148;11.648;2023-06-22T06:45:52;10.47;;;7.03;;
8466;SDS011;4270;48.148;11.648;2023-06-22T06:48:17;9.23;;;6.90;;
8466;SDS011;4270;48.148;11.648;2023-06-22T06:50:42;10.83;;;6.97;;
8466;SDS011;4270;48.148;11.648;2023-06-22T06:53:09;10.30;;;6.97;;
8466;SDS011;4270;48.148;11.648;2023-06-22T06:55:34;10.27;;;6.67;;
8466;SDS011;4270;48.148;11.648;2023-06-22T06:57:59;10.10;;;6.37;;
8466;SDS011;4270;48.148;11.648;2023-06-22T07:00:25;8.67;;;6.63;;
8466;SDS011;4270;48.148;11.648;2023-06-22T07:02:50;12.30;;;8.30;;
8466;SDS011;4270;48.148;11.648;2023-06-22T07:05:16;11.37;;;7.30;;
8466;SDS011;4270;48.148;11.648;2023-06-22T07:07:41;9.53;;;7.30;;
8466;SDS011;4270;48.148;11.648;2023-06-22T07:10:07;9.73;;;7.87;;
8466;SDS011;4270;48.148;11.648;2023-06-22T07:12:32;15.17;;;7.90;;
8466;SDS011;4270;48.148;11.648;2023-06-22T07:15:04;11.23;;;7.93;;
8466;SDS011;4270;48.148;11.648;2023-06-22T07:17:30;10.20;;;6.23;;
8466;SDS011;4270;48.148;11.648;2023-06-22T07:19:55;11.40;;;7.60;;
8466;SDS011;4270;48.148;11.648;2023-06-22T07:22:20;11.20;;;7.50;;
8466;SDS011;4270;48.148;11.648;2023-06-22T07:24:46;22.33;;;13.17;;
8466;SDS011;4270;48.148;11.648;2023-06-22T07:27:11;11.30;;;7.63;;
8466;SDS011;4270;48.148;11.648;2023-06-22T07:29:37;14.07;;;7.60;;
8466;SDS011;4270;48.148;11.648;2023-06-22T07:32:04;8.90;;;7.07;;
8466;SDS011;4270;48.148;11.648;2023-06-22T07:34:30;11.80;;;6.40;;
8466;SDS011;4270;48.148;11.648;2023-06-22T07:36:55;12.23;;;7.37;;
8466;SDS011;4270;48.148;11.648;2023-06-22T07:39:20;11.40;;;6.80;;
8466;SDS011;4270;48.148;11.648;2023-06-22T07:41:50;12.77;;;7.57;;
8466;SDS011;4270;48.148;11.648;2023-06-22T07:44:16;15.00;;;7.43;;
8466;SDS011;4270;48.148;11.648;2023-06-22T07:46:41;10.70;;;6.90;;
8466;SDS011;4270;48.148;11.648;2023-06-22T07:49:06;9.27;;;7.50;;
8466;SDS011;4270;48.148;11.648;2023-06-22T07:51:33;11.43;;;6.60;;
8466;SDS011;4270;48.148;11.648;2023-06-22T07:53:58;13.20;;;7.70;;
8466;SDS011;4270;48.148;11.648;2023-06-22T07:56:23;12.87;;;6.90;;
8466;SDS011;4270;48.148;11.648;2023-06-22T07:58:49;11.20;;;6.87;;
8466;SDS011;4270;48.148;11.648;2023-06-22T08:01:14;7.90;;;7.10;;
8466;SDS011;4270;48.148;11.648;2023-06-22T08:03:39;12.60;;;7.23;;
8466;SDS011;4270;48.148;11.648;2023-06-22T08:06:05;10.33;;;6.70;;
8466;SDS011;4270;48.148;11.648;2023-06-22T08:08:30;13.50;;;7.07;;
8466;SDS011;4270;48.148;11.648;2023-06-22T08:10:56;11.67;;;7.17;;
8466;SDS011;4270;48.148;11.648;2023-06-22T08:13:21;10.37;;;7.00;;
8466;SDS011;4270;48.148;11.648;2023-06-22T08:15:46;11.73;;;7.70;;
8466;SDS011;4270;48.148;11.648;2023-06-22T08:18:12;11.13;;;7.00;;
8466;SDS011;4270;48.148;11.648;2023-06-22T08:20:37;10.97;;;6.70;;
8466;SDS011;4270;48.148;11.648;2023-06-22T08:23:02;11.10;;;6.57;;
8466;SDS011;4270;48.148;11.648;2023-06-22T08:25:31;14.90;;;7.93;;
8466;SDS011;4270;48.148;11.648;2023-06-22T08:27:56;10.07;;;7.00;;
8466;SDS011;4270;48.148;11.648;2023-06-22T08:30:21;9.13;;;6.47;;
8466;SDS011;4270;48.148;11.648;2023-06-22T08:32:46;12.73;;;6.53;;
8466;SDS011;4270;48.148;11.648;2023-06-22T08:35:12;9.30;;;6.87;;
8466;SDS011;4270;48.148;11.648;2023-06-22T08:37:37;15.63;;;7.17;;
8466;SDS011;4270;48.148;11.648;2023-06-22T08:40:04;11.03;;;7.23;;
8466;SDS011;4270;48.148;11.648;2023-06-22T08:42:33;17.70;;;7.80;;
8466;SDS011;4270;48.148;11.648;2023-06-22T08:44:58;13.10;;;7.30;;
8466;SDS011;4270;48.148;11.648;2023-06-22T08:47:23;10.97;;;7.10;;
8466;SDS011;4270;48.148;11.648;2023-06-22T08:49:49;13.17;;;7.37;;
8466;SDS011;4270;48.148;11.648;2023-06-22T08:52:14;10.97;;;6.80;;
8466;SDS011;4270;48.148;11.648;2023-06-22T08:54:39;9.20;;;6.57;;
8466;SDS011;4270;48.148;11.648;2023-06-22T08:57:05;10.23;;;7.03;;
8466;SDS011;4270;48.148;11.648;2023-06-22T08:59:30;10.43;;;6.70;;
8466;SDS011;4270;48.148;11.648;2023-06-22T09:01:55;14.63;;;7.37;;
8466;SDS011;4270;48.148;11.648;2023-06-22T09:04:21;12.20;;;7.20;;
8466;SDS011;4270;48.148;11.648;2023-06-22T09:06:49;13.40;;;7.70;;
8466;SDS011;4270;48.148;11.648;2023-06-22T09:09:17;10.27;;;6.70;;
8466;SDS011;4270;48.148;11.648;2023-06-22T09:11:42;15.23;;;7.63;;
8466;SDS011;4270;48.148;11.648;2023-06-22T09:14:08;11.63;;;6.60;;
8466;SDS011;4270;48.148;11.648;2023-06-22T09:16:33;12.37;;;7.07;;
8466;SDS011;4270;48.148;11.648;2023-06-22T09:18:59;10.47;;;7.37;;
8466;SDS011;4270;48.148;11.648;2023-06-22T09:21:24;8.03;;;7.03;;
8466;SDS011;4270;48.148;11.648;2023-06-22T09:23:49;9.80;;;7.03;;
8466;SDS011;4270;48.148;11.648;2023-06-22T09:26:18;12.93;;;8.20;;
8466;SDS011;4270;48.148;11.648;2023-06-22T09:28:43;10.73;;;7.40;;
8466;SDS011;4270;48.148;11.648;2023-06-22T09:31:08;14.03;;;6.87;;
8466;SDS011;4270;48.148;11.648;2023-06-22T09:33:34;16.50;;;7.07;;
8466;SDS011;4270;48.148;11.648;2023-06-22T09:36:00;10.47;;;6.87;;
8466;SDS011;4270;48.148;11.648;2023-06-22T09:38:25;16.50;;;7.30;;
8466;SDS011;4270;48.148;11.648;2023-06-22T09:40:50;13.10;;;6.97;;
8466;SDS011;4270;48.148;11.648;2023-06-22T09:43:16;8.90;;;7.00;;
8466;SDS011;4270;48.148;11.648;2023-06-22T09:45:41;12.17;;;6.97;;
8466;SDS011;4270;48.148;11.648;2023-06-22T09:48:07;11.47;;;6.87;;
8466;SDS011;4270;48.148;11.648;2023-06-22T09:50:32;10.87;;;6.70;;
8466;SDS011;4270;48.148;11.648;2023-06-22T09:52:57;11.97;;;7.67;;
8466;SDS011;4270;48.148;11.648;2023-06-22T09:55:23;9.60;;;6.83;;
8466;SDS011;4270;48.148;11.648;2023-06-22T09:57:48;12.47;;;6.60;;
8466;SDS011;4270;48.148;11.648;2023-06-22T10:00:15;11.30;;;7.00;;
8466;SDS011;4270;48.148;11.648;2023-06-22T10:02:43;11.57;;;7.60;;
8466;SDS011;4270;48.148;11.648;2023-06-22T10:05:09;13.20;;;6.73;;
8466;SDS011;4270;48.148;11.648;2023-06-22T10:07:34;9.20;;;6.67;;
8466;SDS011;4270;48.148;11.648;2023-06-22T10:09:59;12.13;;;6.77;;
8466;SDS011;4270;48.148;11.648;2023-06-22T10:12:26;15.00;;;6.57;;
8466;SDS011;4270;48.148;11.648;2023-06-22T10:14:52;11.30;;;7.07;;
8466;SDS011;4270;48.148;11.648;2023-06-22T10:17:17;10.33;;;6.90;;
8466;SDS011;4270;48.148;11.648;2023-06-22T10:19:42;10.67;;;7.10;;
8466;SDS011;4270;48.148;11.648;2023-06-22T10:22:08;11.83;;;6.93;;
8466;SDS011;4270;48.148;11.648;2023-06-22T10:24:33;11.20;;;7.00;;
8466;SDS011;4270;48.148;11.648;2023-06-22T10:26:58;12.23;;;6.90;;
8466;SDS011;4270;48.148;11.648;2023-06-22T10:29:23;13.43;;;7.13;;
8466;SDS011;4270;48.148;11.648;2023-06-22T10:31:49;10.87;;;6.23;;
8466;SDS011;4270;48.148;11.648;2023-06-22T10:34:14;9.88;;;6.15;;
8466;SDS011;4270;48.148;11.648;2023-06-22T10:36:39;14.82;;;7.97;;
8466;SDS011;4270;48.148;11.648;2023-06-22T10:39:04;12.18;;;7.05;;
8466;SDS011;4270;48.148;11.648;2023-06-22T10:41:30;12.50;;;7.03;;
8466;SDS011;4270;48.148;11.648;2023-06-22T10:43:56;12.55;;;7.13;;
8466;SDS011;4270;48.148;11.648;2023-06-22T10:46:21;9.45;;;7.50;;
8466;SDS011;4270;48.148;11.648;2023-06-22T10:48:47;11.80;;;6.63;;
8466;SDS011;4270;48.148;11.648;2023-06-22T10:51:12;12.00;;;6.93;;
8466;SDS011;4270;48.148;11.648;2023-06-22T10:53:37;11.93;;;7.60;;
8466;SDS011;4270;48.148;11.648;2023-06-22T10:56:02;8.40;;;6.67;;
8466;SDS011;4270;48.148;11.648;2023-06-22T10:58:28;15.65;;;7.55;;
8466;SDS011;4270;48.148;11.648;2023-06-22T11:00:53;12.35;;;6.90;;
8466;SDS011;4270;48.148;11.648;2023-06-22T11:03:18;9.87;;;6.00;;
8466;SDS011;4270;48.148;11.648;2023-06-22T11:05:43;13.95;;;7.32;;
8466;SDS011;4270;48.148;11.648;2023-06-22T11:08:08;19.80;;;6.85;;
8466;SDS011;4270;48.148;11.648;2023-06-22T11:10:34;12.57;;;7.63;;
8466;SDS011;4270;48.148;11.648;2023-06-22T11:12:59;12.73;;;7.45;;
8466;SDS011;4270;48.148;11.648;2023-06-22T11:15:25;15.27;;;6.93;;
8466;SDS011;4270;48.148;11.648;2023-06-22T11:17:50;12.67;;;6.77;;
8466;SDS011;4270;48.148;11.648;2023-06-22T11:20:15;15.03;;;7.00;;
8466;SDS011;4270;48.148;11.648;2023-06-22T11:22:41;15.23;;;7.97;;
8466;SDS011;4270;48.148;11.648;2023-06-22T11:25:06;10.03;;;6.80;;
8466;SDS011;4270;48.148;11.648;2023-06-22T11:27:32;13.23;;;7.13;;
8466;SDS011;4270;48.148;11.648;2023-06-22T11:29:57;14.07;;;7.30;;
8466;SDS011;4270;48.148;11.648;2023-06-22T11:32:22;10.60;;;7.50;;
8466;SDS011;4270;48.148;11.648;2023-06-22T11:34:47;13.67;;;7.03;;
8466;SDS011;4270;48.148;11.648;2023-06-22T11:37:13;12.70;;;6.90;;
8466;SDS011;4270;48.148;11.648;2023-06-22T11:39:38;12.83;;;7.80;;
8466;SDS011;4270;48.148;11.648;2023-06-22T11:42:03;12.10;;;7.33;;
8466;SDS011;4270;48.148;11.648;2023-06-22T11:44:29;13.30;;;7.90;;
8466;SDS011;4270;48.148;11.648;2023-06-22T11:46:54;10.60;;;7.40;;
8466;SDS011;4270;48.148;11.648;2023-06-22T11:49:19;10.13;;;7.20;;
8466;SDS011;4270;48.148;11.648;2023-06-22T11:51:44;13.40;;;7.00;;
8466;SDS011;4270;48.148;11.648;2023-06-22T11:54:09;14.40;;;7.43;;
8466;SDS011;4270;48.148;11.648;2023-06-22T11:56:35;11.50;;;6.73;;
8466;SDS011;4270;48.148;11.648;2023-06-22T11:59:00;14.50;;;7.90;;
8466;SDS011;4270;48.148;11.648;2023-06-22T12:01:25;13.17;;;7.53;;
8466;SDS011;4270;48.148;11.648;2023-06-22T12:03:50;12.03;;;7.80;;
8466;SDS011;4270;48.148;11.648;2023-06-22T12:06:16;11.57;;;7.20;;
8466;SDS011;4270;48.148;11.648;2023-06-22T12:08:41;11.03;;;6.97;;
8466;SDS011;4270;48.148;11.648;2023-06-22T12:11:06;17.60;;;7.20;;
8466;SDS011;4270;48.148;11.648;2023-06-22T12:13:31;11.60;;;7.50;;
8466;SDS011;4270;48.148;11.648;2023-06-22T12:15:56;11.73;;;7.00;;
8466;SDS011;4270;48.148;11.648;2023-06-22T12:18:22;9.23;;;7.23;;
8466;SDS011;4270;48.148;11.648;2023-06-22T12:20:47;22.27;;;8.20;;
8466;SDS011;4270;48.148;11.648;2023-06-22T12:23:12;10.60;;;6.43;;
8466;SDS011;4270;48.148;11.648;2023-06-22T12:25:38;11.83;;;6.70;;
8466;SDS011;4270;48.148;11.648;2023-06-22T12:28:04;10.70;;;6.40;;
8466;SDS011;4270;48.148;11.648;2023-06-22T12:30:29;10.47;;;7.40;;
8466;SDS011;4270;48.148;11.648;2023-06-22T12:32:55;12.20;;;6.87;;
8466;SDS011;4270;48.148;11.648;2023-06-22T12:35:20;8.30;;;7.20;;
8466;SDS011;4270;48.148;11.648;2023-06-22T12:37:45;8.47;;;6.90;;
8466;SDS011;4270;48.148;11.648;2023-06-22T12:40:11;14.13;;;6.80;;
8466;SDS011;4270;48.148;11.648;2023-06-22T12:42:36;18.57;;;6.87;;
8466;SDS011;4270;48.148;11.648;2023-06-22T12:45:01;15.77;;;6.57;;
8466;SDS011;4270;48.148;11.648;2023-06-22T12:47:27;14.93;;;6.77;;
8466;SDS011;4270;48.148;11.648;2023-06-22T12:49:52;16.33;;;6.47;;
8466;SDS011;4270;48.148;11.648;2023-06-22T12:52:17;11.80;;;6.90;;
8466;SDS011;4270;48.148;11.648;2023-06-22T12:54:42;12.77;;;6.73;;
8466;SDS011;4270;48.148;11.648;2023-06-22T12:57:08;10.70;;;7.30;;
8466;SDS011;4270;48.148;11.648;2023-06-22T12:59:33;12.87;;;5.87;;
8466;SDS011;4270;48.148;11.648;2023-06-22T13:01:58;11.27;;;6.77;;
8466;SDS011;4270;48.148;11.648;2023-06-22T13:04:23;9.83;;;7.10;;
8466;SDS011;4270;48.148;11.648;2023-06-22T13:06:49;14.20;;;7.10;;
8466;SDS011;4270;48.148;11.648;2023-06-22T13:09:14;11.83;;;6.90;;
8466;SDS011;4270;48.148;11.648;2023-06-22T13:11:40;13.40;;;6.60;;
8466;SDS011;4270;48.148;11.648;2023-06-22T13:14:05;13.43;;;6.53;;
8466;SDS011;4270;48.148;11.648;2023-06-22T13:16:31;10.50;;;6.60;;
8466;SDS011;4270;48.148;11.648;2023-06-22T13:18:56;13.17;;;6.90;;
8466;SDS011;4270;48.148;11.648;2023-06-22T13:21:22;12.70;;;6.77;;
8466;SDS011;4270;48.148;11.648;2023-06-22T13:23:47;11.93;;;6.23;;
8466;SDS011;4270;48.148;11.648;2023-06-22T13:26:13;11.00;;;6.80;;
8466;SDS011;4270;48.148;11.648;2023-06-22T13:28:38;12.80;;;7.10;;
8466;SDS011;4270;48.148;11.648;2023-06-22T13:31:03;17.37;;;6.60;;
8466;SDS011;4270;48.148;11.648;2023-06-22T13:33:28;14.67;;;6.80;;
8466;SDS011;4270;48.148;11.648;2023-06-22T13:35:54;13.13;;;6.57;;
8466;SDS011;4270;48.148;11.648;2023-06-22T13:38:19;11.70;;;6.33;;
8466;SDS011;4270;48.148;11.648;2023-06-22T13:40:44;12.20;;;6.90;;
8466;SDS011;4270;48.148;11.648;2023-06-22T13:43:10;12.93;;;6.47;;
8466;SDS011;4270;48.148;11.648;2023-06-22T13:45:35;10.77;;;6.70;;
8466;SDS011;4270;48.148;11.648;2023-06-22T13:48:00;14.20;;;6.70;;
8466;SDS011;4270;48.148;11.648;2023-06-22T13:50:26;11.20;;;7.33;;
8466;SDS011;4270;48.148;11.648;2023-06-22T13:52:51;10.23;;;7.00;;
8466;SDS011;4270;48.148;11.648;2023-06-22T13:55:16;14.00;;;6.53;;
8466;SDS011;4270;48.148;11.648;2023-06-22T13:57:42;11.50;;;6.50;;
8466;SDS011;4270;48.148;11.648;2023-06-22T14:00:08;9.17;;;6.23;;
8466;SDS011;4270;48.148;11.648;2023-06-22T14:02:33;10.10;;;6.20;;
8466;SDS011;4270;48.148;11.648;2023-06-22T14:04:58;9.80;;;6.43;;
8466;SDS011;4270;48.148;11.648;2023-06-22T14:07:24;13.13;;;6.13;;
8466;SDS011;4270;48.148;11.648;2023-06-22T14:09:49;16.10;;;6.60;;
8466;SDS011;4270;48.148;11.648;2023-06-22T14:12:14;11.53;;;6.63;;
8466;SDS011;4270;48.148;11.648;2023-06-22T14:14:40;14.53;;;6.83;;
8466;SDS011;4270;48.148;11.648;2023-06-22T14:17:06;10.83;;;7.00;;
8466;SDS011;4270;48.148;11.648;2023-06-22T14:19:31;12.47;;;7.33;;
8466;SDS011;4270;48.148;11.648;2023-06-22T14:21:56;13.13;;;7.50;;
8466;SDS011;4270;48.148;11.648;2023-06-22T14:24:24;17.20;;;7.47;;
8466;SDS011;4270;48.148;11.648;2023-06-22T14:26:49;12.43;;;7.00;;
8466;SDS011;4270;48.148;11.648;2023-06-22T14:29:15;10.87;;;6.90;;
8466;SDS011;4270;48.148;11.648;2023-06-22T14:31:40;14.73;;;6.70;;
8466;SDS011;4270;48.148;11.648;2023-06-22T14:34:05;14.10;;;7.30;;
8466;SDS011;4270;48.148;11.648;2023-06-22T14:36:31;11.60;;;6.57;;
8466;SDS011;4270;48.148;11.648;2023-06-22T14:38:56;15.03;;;6.90;;
8466;SDS011;4270;48.148;11.648;2023-06-22T14:41:21;11.67;;;6.20;;
8466;SDS011;4270;48.148;11.648;2023-06-22T14:43:47;10.73;;;5.80;;
8466;SDS011;4270;48.148;11.648;2023-06-22T14:46:14;9.57;;;6.67;;
8466;SDS011;4270;48.148;11.648;2023-06-22T14:48:39;10.80;;;6.47;;
8466;SDS011;4270;48.148;11.648;2023-06-22T14:51:04;8.07;;;5.83;;
8466;SDS011;4270;48.148;11.648;2023-06-22T14:53:29;13.90;;;6.83;;
8466;SDS011;4270;48.148;11.648;2023-06-22T14:55:54;13.13;;;7.40;;